Time,TemperatureF,DewpointF,PressureIn,WindDirection,WindDirectionDegrees,WindSpeedMPH,WindSpeedGustMPH,Humidity,HourlyPrecipIn,Conditions,Clouds,dailyrainin,SoftwareType,DateUTC
2013-02-02 00:00:00,13.1,10.2,29.93,SSW,196,0.0,0.0,88,0.00,,,0.00,VWS V14.00,2013-02-02 05:00:00,
2013-02-02 00:01:00,13.1,10.2,29.93,SSW,196,0.0,0.0,88,0.00,,,0.00,VWS V14.00,2013-02-02 05:01:00,
2013-02-02 00:02:00,13.1,10.2,29.93,SSW,196,0.0,0.0,88,0.00,,,0.00,VWS V14.00,2013-02-02 05:02:00,
2013-02-02 00:06:00,13.3,10.4,29.93,SSW,200,0.0,0.0,88,0.00,,,0.00,VWS V14.00,2013-02-02 05:06:00,
2013-02-02 00:11:00,13.3,10.4,29.93,SW,214,0.0,0.0,88,0.00,,,0.00,VWS V14.00,2013-02-02 05:11:00,
2013-02-02 00:16:00,13.3,10.4,29.93,SSW,195,0.0,0.0,88,0.00,,,0.00,VWS V14.00,2013-02-02 05:16:00,
2013-02-02 00:21:00,13.3,10.4,29.93,SSW,200,0.0,0.0,88,0.00,,,0.00,VWS V14.00,2013-02-02 05:21:00,
2013-02-02 00:27:00,13.3,10.4,29.93,SSW,204,0.0,0.0,88,0.00,,,0.00,VWS V14.00,2013-02-02 05:27:00,
2013-02-02 00:32:00,13.5,10.6,29.93,SSW,197,0.0,0.0,88,0.00,,,0.00,VWS V14.00,2013-02-02 05:32:00,
2013-02-02 00:38:00,13.5,10.6,29.93,SSW,195,0.0,0.0,88,0.00,,,0.00,VWS V14.00,2013-02-02 05:38:00,
2013-02-02 00:43:00,13.5,10.6,29.93,SSW,203,0.0,0.0,88,0.00,,,0.00,VWS V14.00,2013-02-02 05:43:00,
2013-02-02 00:49:00,13.6,10.8,29.93,SSW,198,0.0,0.0,88,0.00,,,0.00,VWS V14.00,2013-02-02 05:49:00,
2013-02-02 00:54:00,13.6,10.8,29.93,SSW,197,0.0,0.0,88,0.00,,,0.00,VWS V14.00,2013-02-02 05:54:00,
2013-02-02 01:00:00,13.6,10.8,29.90,SSW,197,0.0,0.0,88,0.00,,,0.00,VWS V14.00,2013-02-02 06:00:00,
2013-02-02 01:06:00,13.8,10.9,29.90,SSW,197,0.0,0.0,88,0.00,,,0.00,VWS V14.00,2013-02-02 06:06:00,
2013-02-02 01:12:00,13.8,10.9,29.90,SSW,196,0.0,0.0,88,0.00,,,0.00,VWS V14.00,2013-02-02 06:12:00,
2013-02-02 01:17:00,13.8,10.9,29.90,SSW,197,0.0,0.0,88,0.00,,,0.00,VWS V14.00,2013-02-02 06:17:00,
2013-02-02 01:22:00,14.0,11.9,29.90,SW,214,0.0,0.0,91,0.00,,,0.00,VWS V14.00,2013-02-02 06:22:00,
2013-02-02 01:28:00,14.4,12.2,29.90,WSW,258,0.0,0.0,91,0.00,,,0.00,VWS V14.00,2013-02-02 06:28:00,
2013-02-02 01:34:00,14.9,13.0,29.90,West,275,0.0,0.0,92,0.00,,,0.00,VWS V14.00,2013-02-02 06:34:00,
2013-02-02 01:40:00,15.3,13.4,29.90,SW,233,0.0,0.0,92,0.00,,,0.00,VWS V14.00,2013-02-02 06:40:00,
2013-02-02 01:45:00,15.4,13.5,29.90,SW,236,0.0,0.0,92,0.00,,,0.00,VWS V14.00,2013-02-02 06:45:00,
2013-02-02 01:50:00,15.6,13.7,29.90,SW,235,0.0,0.0,92,0.00,,,0.00,VWS V14.00,2013-02-02 06:50:00,
2013-02-02 01:56:00,15.8,13.9,29.90,SW,234,0.0,0.0,92,0.00,,,0.00,VWS V14.00,2013-02-02 06:56:00,
2013-02-02 02:01:00,15.8,14.1,29.90,SW,235,0.0,0.0,93,0.00,,,0.00,VWS V14.00,2013-02-02 07:01:00,
2013-02-02 02:06:00,16.0,14.1,29.90,SW,234,0.0,0.0,92,0.00,,,0.00,VWS V14.00,2013-02-02 07:06:00,
2013-02-02 02:11:00,16.0,14.3,29.90,SW,216,0.0,0.0,93,0.00,,,0.00,VWS V14.00,2013-02-02 07:11:00,
2013-02-02 02:17:00,16.0,14.3,29.90,SSW,212,0.0,0.0,93,0.00,,,0.00,VWS V14.00,2013-02-02 07:17:00,
2013-02-02 02:22:00,16.2,14.5,29.90,SSW,213,0.0,0.0,93,0.00,,,0.00,VWS V14.00,2013-02-02 07:22:00,
2013-02-02 02:27:00,16.2,14.5,29.87,SSW,213,0.0,0.0,93,0.00,,,0.00,VWS V14.00,2013-02-02 07:27:00,
2013-02-02 02:33:00,16.2,14.5,29.87,SSW,213,0.0,0.0,93,0.00,,,0.00,VWS V14.00,2013-02-02 07:33:00,
2013-02-02 02:38:00,16.3,14.7,29.87,SSW,197,0.0,0.0,93,0.00,,,0.00,VWS V14.00,2013-02-02 07:38:00,
2013-02-02 02:43:00,16.5,14.9,29.87,SW,223,0.0,0.0,93,0.00,,,0.00,VWS V14.00,2013-02-02 07:43:00,
2013-02-02 02:48:00,16.5,15.1,29.87,SW,224,0.0,0.0,94,0.00,,,0.00,VWS V14.00,2013-02-02 07:48:00,
2013-02-02 02:53:00,16.7,15.3,29.87,SW,223,0.0,0.0,94,0.00,,,0.00,VWS V14.00,2013-02-02 07:53:00,
2013-02-02 02:59:00,16.7,15.3,29.87,SE,135,0.0,0.0,94,0.00,,,0.00,VWS V14.00,2013-02-02 07:59:00,
2013-02-02 03:06:00,16.7,15.3,29.87,SE,140,0.0,0.0,94,0.00,,,0.00,VWS V14.00,2013-02-02 08:06:00,
2013-02-02 03:11:00,16.5,15.1,29.87,SSE,147,0.0,0.0,94,0.00,,,0.00,VWS V14.00,2013-02-02 08:11:00,
2013-02-02 03:16:00,16.2,14.7,29.87,SSE,151,0.0,0.0,94,0.00,,,0.00,VWS V14.00,2013-02-02 08:16:00,
2013-02-02 03:22:00,16.0,14.6,29.87,SSE,152,0.0,0.0,94,0.00,,,0.00,VWS V14.00,2013-02-02 08:22:00,
2013-02-02 03:27:00,16.0,14.6,29.87,SSE,151,0.0,0.0,94,0.00,,,0.00,VWS V14.00,2013-02-02 08:27:00,
2013-02-02 03:32:00,15.8,14.6,29.87,SSE,150,0.0,0.0,95,0.00,,,0.00,VWS V14.00,2013-02-02 08:32:00,
2013-02-02 03:37:00,15.8,14.6,29.87,SSE,149,0.0,0.0,95,0.00,,,0.00,VWS V14.00,2013-02-02 08:37:00,
2013-02-02 03:42:00,15.6,14.4,29.87,SSE,149,0.0,0.0,95,0.00,,,0.00,VWS V14.00,2013-02-02 08:42:00,
2013-02-02 03:48:00,15.6,14.4,29.87,SSE,151,0.0,0.0,95,0.00,,,0.00,VWS V14.00,2013-02-02 08:48:00,
2013-02-02 03:54:00,15.4,14.3,29.87,SSE,151,0.0,0.0,95,0.00,,,0.00,VWS V14.00,2013-02-02 08:54:00,
2013-02-02 03:59:00,15.4,14.3,29.84,SSE,152,0.0,0.0,95,0.00,,,0.00,VWS V14.00,2013-02-02 08:59:00,
2013-02-02 04:05:00,15.4,14.3,29.84,SSE,151,0.0,0.0,95,0.00,,,0.00,VWS V14.00,2013-02-02 09:05:00,
2013-02-02 04:11:00,15.3,14.1,29.84,SSE,151,0.0,0.0,95,0.00,,,0.00,VWS V14.00,2013-02-02 09:11:00,
2013-02-02 04:16:00,15.3,14.1,29.84,SSE,151,0.0,0.0,95,0.00,,,0.00,VWS V14.00,2013-02-02 09:16:00,
2013-02-02 04:21:00,15.3,14.1,29.84,SSE,151,0.0,0.0,95,0.00,,,0.00,VWS V14.00,2013-02-02 09:21:00,
2013-02-02 04:26:00,15.3,14.1,29.84,SSE,150,0.0,0.0,95,0.00,,,0.00,VWS V14.00,2013-02-02 09:26:00,
2013-02-02 04:31:00,15.3,14.1,29.84,SSE,152,0.0,0.0,95,0.00,,,0.00,VWS V14.00,2013-02-02 09:31:00,
2013-02-02 04:37:00,15.4,14.3,29.84,SSE,153,0.0,0.0,95,0.00,,,0.00,VWS V14.00,2013-02-02 09:37:00,
2013-02-02 04:42:00,15.4,14.3,29.84,SSW,202,0.0,0.0,95,0.00,,,0.00,VWS V14.00,2013-02-02 09:42:00,
2013-02-02 04:47:00,15.4,14.3,29.84,SSW,201,0.0,0.0,95,0.00,,,0.00,VWS V14.00,2013-02-02 09:47:00,
2013-02-02 04:52:00,15.4,14.3,29.84,South,172,0.0,0.0,95,0.00,,,0.00,VWS V14.00,2013-02-02 09:52:00,
2013-02-02 04:58:00,15.4,14.3,29.81,SSE,157,0.0,0.0,95,0.00,,,0.00,VWS V14.00,2013-02-02 09:58:00,
2013-02-02 05:03:00,15.4,14.3,29.81,South,181,0.0,0.0,95,0.00,,,0.00,VWS V14.00,2013-02-02 10:03:00,
2013-02-02 05:08:00,15.4,14.3,29.81,SSE,147,0.0,0.0,95,0.00,,,0.00,VWS V14.00,2013-02-02 10:08:00,
2013-02-02 05:13:00,15.4,14.3,29.81,SSE,161,0.0,0.0,95,0.00,,,0.00,VWS V14.00,2013-02-02 10:13:00,
2013-02-02 05:19:00,15.4,14.3,29.81,SSW,202,0.0,0.0,95,0.00,,,0.00,VWS V14.00,2013-02-02 10:19:00,
2013-02-02 05:25:00,15.4,14.3,29.81,SSW,207,0.0,0.0,95,0.00,,,0.00,VWS V14.00,2013-02-02 10:25:00,
2013-02-02 05:30:00,15.4,14.3,29.81,South,181,0.0,0.0,95,0.00,,,0.00,VWS V14.00,2013-02-02 10:30:00,
2013-02-02 05:35:00,15.4,14.3,29.81,SSE,149,0.0,0.0,95,0.00,,,0.00,VWS V14.00,2013-02-02 10:35:00,
2013-02-02 05:40:00,15.4,14.3,29.81,South,180,0.0,0.0,95,0.00,,,0.00,VWS V14.00,2013-02-02 10:40:00,
2013-02-02 05:46:00,15.4,14.3,29.81,SSE,164,0.0,0.0,95,0.00,,,0.00,VWS V14.00,2013-02-02 10:46:00,
2013-02-02 05:51:00,15.4,14.3,29.81,South,177,0.0,0.0,95,0.00,,,0.00,VWS V14.00,2013-02-02 10:51:00,
2013-02-02 05:56:00,15.4,14.3,29.81,South,188,0.0,0.0,95,0.00,,,0.00,VWS V14.00,2013-02-02 10:56:00,
2013-02-02 06:01:00,15.4,14.3,29.81,SSW,209,0.0,0.0,95,0.00,,,0.00,VWS V14.00,2013-02-02 11:01:00,
2013-02-02 06:06:00,15.4,14.3,29.81,SSW,205,0.0,0.0,95,0.00,,,0.00,VWS V14.00,2013-02-02 11:06:00,
2013-02-02 06:11:00,15.4,14.3,29.78,SW,224,0.0,0.0,95,0.00,,,0.00,VWS V14.00,2013-02-02 11:11:00,
2013-02-02 06:17:00,15.4,14.3,29.78,SSW,211,0.0,0.0,95,0.00,,,0.00,VWS V14.00,2013-02-02 11:17:00,
2013-02-02 06:22:00,15.6,14.4,29.78,SSW,212,0.0,0.0,95,0.00,,,0.00,VWS V14.00,2013-02-02 11:22:00,
2013-02-02 06:27:00,15.6,14.4,29.78,SSW,213,0.0,0.0,95,0.00,,,0.00,VWS V14.00,2013-02-02 11:27:00,
2013-02-02 06:32:00,15.8,14.6,29.78,SW,214,0.0,0.0,95,0.00,,,0.00,VWS V14.00,2013-02-02 11:32:00,
2013-02-02 06:38:00,15.8,14.6,29.78,SW,214,0.0,0.0,95,0.00,,,0.00,VWS V14.00,2013-02-02 11:38:00,
2013-02-02 06:43:00,15.8,14.6,29.78,SSW,211,0.0,0.0,95,0.00,,,0.00,VWS V14.00,2013-02-02 11:43:00,
2013-02-02 06:48:00,15.8,14.6,29.78,SSW,212,0.0,0.0,95,0.00,,,0.00,VWS V14.00,2013-02-02 11:48:00,
2013-02-02 06:54:00,16.0,14.8,29.78,SSW,213,0.0,0.0,95,0.00,,,0.00,VWS V14.00,2013-02-02 11:54:00,
2013-02-02 07:00:00,16.0,14.8,29.78,SSW,213,0.0,0.0,95,0.00,,,0.00,VWS V14.00,2013-02-02 12:00:00,
2013-02-02 07:06:00,16.0,14.8,29.78,SSW,212,0.0,0.0,95,0.00,,,0.00,VWS V14.00,2013-02-02 12:06:00,
2013-02-02 07:11:00,16.0,14.8,29.78,SSW,212,0.0,0.0,95,0.00,,,0.00,VWS V14.00,2013-02-02 12:11:00,
2013-02-02 07:17:00,16.2,15.0,29.78,SW,214,0.0,0.0,95,0.00,,,0.00,VWS V14.00,2013-02-02 12:17:00,
2013-02-02 07:22:00,16.2,15.0,29.78,SSW,212,0.0,0.0,95,0.00,,,0.00,VWS V14.00,2013-02-02 12:22:00,
2013-02-02 07:28:00,16.2,15.0,29.78,SSW,213,0.0,0.0,95,0.00,,,0.00,VWS V14.00,2013-02-02 12:28:00,
2013-02-02 07:33:00,16.2,15.0,29.78,SSW,212,0.0,0.0,95,0.00,,,0.00,VWS V14.00,2013-02-02 12:33:00,
2013-02-02 07:39:00,16.3,15.2,29.78,SSW,212,0.0,0.0,95,0.00,,,0.00,VWS V14.00,2013-02-02 12:39:00,
2013-02-02 07:45:00,16.3,15.2,29.78,SW,214,0.0,0.0,95,0.00,,,0.00,VWS V14.00,2013-02-02 12:45:00,
2013-02-02 07:50:00,16.5,15.3,29.78,SW,214,0.0,0.0,95,0.00,,,0.00,VWS V14.00,2013-02-02 12:50:00,
2013-02-02 07:55:00,16.5,15.3,29.78,SSW,212,0.0,0.0,95,0.00,,,0.00,VWS V14.00,2013-02-02 12:55:00,
2013-02-02 08:00:00,16.5,15.3,29.78,SW,214,0.0,0.0,95,0.00,,,0.00,VWS V14.00,2013-02-02 13:00:00,
2013-02-02 08:05:00,16.5,15.6,29.78,SSW,213,0.0,0.0,96,0.00,,,0.00,VWS V14.00,2013-02-02 13:05:00,
2013-02-02 08:10:00,16.5,15.6,29.78,SW,214,0.0,0.0,96,0.00,,,0.00,VWS V14.00,2013-02-02 13:10:00,
2013-02-02 08:16:00,16.7,15.8,29.78,SW,214,0.0,0.0,96,0.00,,,0.00,VWS V14.00,2013-02-02 13:16:00,
2013-02-02 08:22:00,16.7,15.8,29.78,NNE,19,0.0,0.0,96,0.00,,,0.00,VWS V14.00,2013-02-02 13:22:00,
2013-02-02 08:28:00,16.7,15.8,29.78,NE,42,0.0,0.0,96,0.00,,,0.00,VWS V14.00,2013-02-02 13:28:00,
2013-02-02 08:34:00,16.7,15.8,29.78,NNE,24,0.0,0.0,96,0.00,,,0.00,VWS V14.00,2013-02-02 13:34:00,
2013-02-02 08:39:00,16.7,15.8,29.78,NNE,16,0.0,0.0,96,0.00,,,0.00,VWS V14.00,2013-02-02 13:39:00,
2013-02-02 08:44:00,16.9,15.9,29.81,NNE,18,0.0,0.0,96,0.00,,,0.00,VWS V14.00,2013-02-02 13:44:00,
2013-02-02 08:49:00,16.9,15.9,29.81,NNE,12,0.0,0.0,96,0.00,,,0.00,VWS V14.00,2013-02-02 13:49:00,
2013-02-02 08:55:00,16.9,15.9,29.81,North,357,0.0,0.0,96,0.00,,,0.00,VWS V14.00,2013-02-02 13:55:00,
2013-02-02 09:00:00,17.1,16.1,29.81,NNE,32,0.0,0.0,96,0.00,,,0.00,VWS V14.00,2013-02-02 14:00:00,
2013-02-02 09:06:00,17.1,16.1,29.81,NNE,19,0.0,0.0,96,0.00,,,0.00,VWS V14.00,2013-02-02 14:06:00,
2013-02-02 09:12:00,16.9,15.9,29.81,NNE,14,0.0,0.0,96,0.00,,,0.00,VWS V14.00,2013-02-02 14:12:00,
2013-02-02 09:17:00,17.1,16.1,29.81,North,2,0.0,0.0,96,0.00,,,0.00,VWS V14.00,2013-02-02 14:17:00,
2013-02-02 09:23:00,17.1,15.9,29.81,North,357,0.0,0.0,95,0.00,,,0.00,VWS V14.00,2013-02-02 14:23:00,
2013-02-02 09:28:00,17.2,16.1,29.81,NNW,339,0.0,0.0,95,0.00,,,0.00,VWS V14.00,2013-02-02 14:28:00,
2013-02-02 09:33:00,17.4,16.2,29.81,NNE,19,0.0,0.0,95,0.00,,,0.00,VWS V14.00,2013-02-02 14:33:00,
2013-02-02 09:38:00,17.6,16.2,29.81,North,357,0.0,0.0,94,0.00,,,0.00,VWS V14.00,2013-02-02 14:38:00,
2013-02-02 09:43:00,17.8,16.1,29.81,North,5,0.0,0.0,93,0.00,,,0.00,VWS V14.00,2013-02-02 14:43:00,
2013-02-02 09:49:00,18.0,16.3,29.81,NE,34,0.0,0.0,93,0.00,,,0.00,VWS V14.00,2013-02-02 14:49:00,
2013-02-02 09:54:00,18.1,16.2,29.81,NNE,12,0.0,0.0,92,0.00,,,0.00,VWS V14.00,2013-02-02 14:54:00,
2013-02-02 09:59:00,18.1,16.2,29.81,North,8,0.0,0.0,92,0.00,,,0.00,VWS V14.00,2013-02-02 14:59:00,
2013-02-02 10:04:00,18.3,16.4,29.81,North,10,0.0,0.0,92,0.00,,,0.00,VWS V14.00,2013-02-02 15:04:00,
2013-02-02 10:09:00,18.5,16.3,29.81,North,1,0.0,0.0,91,0.00,,,0.00,VWS V14.00,2013-02-02 15:09:00,
2013-02-02 10:15:00,18.7,16.5,29.81,NNE,28,0.0,0.0,91,0.00,,,0.00,VWS V14.00,2013-02-02 15:15:00,
2013-02-02 10:20:00,19.0,16.6,29.81,NNE,18,0.0,0.0,90,0.00,,,0.00,VWS V14.00,2013-02-02 15:20:00,
2013-02-02 10:26:00,19.4,17.0,29.81,North,9,0.0,0.0,90,0.00,,,0.00,VWS V14.00,2013-02-02 15:26:00,
2013-02-02 10:31:00,19.6,16.9,29.81,NNE,19,0.0,0.0,89,0.00,,,0.00,VWS V14.00,2013-02-02 15:31:00,
2013-02-02 10:37:00,19.9,17.0,29.81,NE,34,0.0,0.0,88,0.00,,,0.00,VWS V14.00,2013-02-02 15:37:00,
2013-02-02 10:43:00,20.1,17.1,29.81,NE,41,0.0,0.0,88,0.00,,,0.00,VWS V14.00,2013-02-02 15:43:00,
2013-02-02 10:48:00,20.5,17.2,29.81,ENE,58,0.0,0.0,87,0.00,,,0.00,VWS V14.00,2013-02-02 15:48:00,
2013-02-02 10:54:00,20.7,17.1,29.81,North,8,0.0,0.0,86,0.00,,,0.00,VWS V14.00,2013-02-02 15:54:00,
2013-02-02 10:59:00,20.7,17.1,29.81,NNE,30,0.0,0.0,86,0.00,,,0.00,VWS V14.00,2013-02-02 15:59:00,
2013-02-02 11:05:00,20.3,16.2,29.81,North,357,0.0,0.0,84,0.00,,,0.00,VWS V14.00,2013-02-02 16:05:00,
2013-02-02 11:11:00,20.1,15.8,29.81,NNE,30,0.0,0.0,83,0.00,,,0.00,VWS V14.00,2013-02-02 16:11:00,
2013-02-02 11:16:00,19.9,15.1,29.81,North,11,0.0,0.0,81,0.00,,,0.00,VWS V14.00,2013-02-02 16:16:00,
2013-02-02 11:21:00,19.8,14.6,29.81,North,6,0.0,0.0,80,0.00,,,0.00,VWS V14.00,2013-02-02 16:21:00,
2013-02-02 11:27:00,19.8,14.3,29.81,North,357,0.0,0.0,79,0.00,,,0.00,VWS V14.00,2013-02-02 16:27:00,
2013-02-02 11:32:00,19.9,14.5,29.81,NNE,20,0.0,0.0,79,0.00,,,0.00,VWS V14.00,2013-02-02 16:32:00,
2013-02-02 11:37:00,20.1,14.4,29.81,NNE,32,0.0,0.0,78,0.00,,,0.00,VWS V14.00,2013-02-02 16:37:00,
2013-02-02 11:42:00,20.3,14.6,29.81,North,357,0.0,0.0,78,0.00,,,0.00,VWS V14.00,2013-02-02 16:42:00,
2013-02-02 11:47:00,19.9,13.9,29.81,NNE,30,0.0,0.0,77,0.00,,,0.00,VWS V14.00,2013-02-02 16:47:00,
2013-02-02 11:52:00,19.8,13.4,29.81,NNE,12,0.0,0.0,76,0.00,,,0.00,VWS V14.00,2013-02-02 16:52:00,
2013-02-02 11:58:00,19.8,13.4,29.81,NNE,15,0.0,0.0,76,0.00,,,0.00,VWS V14.00,2013-02-02 16:58:00,
2013-02-02 12:03:00,19.8,13.4,29.81,NE,34,0.0,0.0,76,0.00,,,0.00,VWS V14.00,2013-02-02 17:03:00,
2013-02-02 12:09:00,19.9,13.3,29.81,North,1,0.0,0.0,75,0.00,,,0.00,VWS V14.00,2013-02-02 17:09:00,
2013-02-02 12:14:00,19.8,12.8,29.81,NE,43,0.0,0.0,74,0.00,,,0.00,VWS V14.00,2013-02-02 17:14:00,
2013-02-02 12:19:00,19.8,12.8,29.81,North,7,0.0,0.0,74,0.00,,,0.00,VWS V14.00,2013-02-02 17:19:00,
2013-02-02 12:25:00,19.9,13.0,29.81,NNE,22,0.0,0.0,74,0.00,,,0.00,VWS V14.00,2013-02-02 17:25:00,
2013-02-02 12:30:00,19.9,12.7,29.81,NNE,24,0.0,0.0,73,0.00,,,0.00,VWS V14.00,2013-02-02 17:30:00,
2013-02-02 12:36:00,19.9,12.7,29.81,NNE,23,0.0,0.0,73,0.00,,,0.00,VWS V14.00,2013-02-02 17:36:00,
2013-02-02 12:42:00,20.1,12.9,29.81,North,7,0.0,0.0,73,0.00,,,0.00,VWS V14.00,2013-02-02 17:42:00,
2013-02-02 12:47:00,20.1,12.9,29.81,North,0,0.0,0.0,73,0.00,,,0.00,VWS V14.00,2013-02-02 17:47:00,
2013-02-02 12:53:00,20.1,12.6,29.81,NNE,29,0.0,0.0,72,0.00,,,0.00,VWS V14.00,2013-02-02 17:53:00,
2013-02-02 12:58:00,20.1,12.6,29.78,NE,34,0.0,0.0,72,0.00,,,0.00,VWS V14.00,2013-02-02 17:58:00,
2013-02-02 13:03:00,20.3,12.7,29.78,North,6,0.0,0.0,72,0.00,,,0.00,VWS V14.00,2013-02-02 18:03:00,
2013-02-02 13:08:00,20.1,12.2,29.78,NNE,32,0.0,0.0,71,0.00,,,0.00,VWS V14.00,2013-02-02 18:08:00,
2013-02-02 13:13:00,20.1,12.2,29.78,NNE,22,0.0,0.0,71,0.00,,,0.00,VWS V14.00,2013-02-02 18:13:00,
2013-02-02 13:19:00,20.3,12.4,29.78,North,5,0.0,0.0,71,0.00,,,0.00,VWS V14.00,2013-02-02 18:19:00,
2013-02-02 13:25:00,20.3,12.4,29.78,NNE,23,0.0,0.0,71,0.00,,,0.00,VWS V14.00,2013-02-02 18:25:00,
2013-02-02 13:30:00,20.5,12.6,29.78,NNE,25,0.0,0.0,71,0.00,,,0.00,VWS V14.00,2013-02-02 18:30:00,
2013-02-02 13:36:00,20.5,12.6,29.78,North,8,0.0,0.0,71,0.00,,,0.00,VWS V14.00,2013-02-02 18:36:00,
2013-02-02 13:41:00,20.5,12.6,29.78,NNE,28,0.0,0.0,71,0.00,,,0.00,VWS V14.00,2013-02-02 18:41:00,
2013-02-02 13:46:00,20.5,12.6,29.78,NNE,24,0.0,0.0,71,0.00,,,0.00,VWS V14.00,2013-02-02 18:46:00,
2013-02-02 13:51:00,20.5,12.6,29.78,North,9,0.0,0.0,71,0.00,,,0.00,VWS V14.00,2013-02-02 18:51:00,
2013-02-02 13:56:00,20.7,12.8,29.78,NNE,20,0.0,0.0,71,0.00,,,0.00,VWS V14.00,2013-02-02 18:56:00,
2013-02-02 14:01:00,20.7,12.8,29.78,NNE,30,0.0,0.0,71,0.00,,,0.00,VWS V14.00,2013-02-02 19:01:00,
2013-02-02 14:07:00,21.0,13.1,29.78,NNE,13,0.0,0.0,71,0.00,,,0.00,VWS V14.00,2013-02-02 19:07:00,
2013-02-02 14:12:00,21.0,13.1,29.78,North,2,0.0,0.0,71,0.00,,,0.00,VWS V14.00,2013-02-02 19:12:00,
2013-02-02 14:18:00,20.8,12.9,29.78,NNE,16,0.0,0.0,71,0.00,,,0.00,VWS V14.00,2013-02-02 19:18:00,
2013-02-02 14:23:00,20.7,12.4,29.78,NNE,32,0.0,0.0,70,0.00,,,0.00,VWS V14.00,2013-02-02 19:23:00,
2013-02-02 14:29:00,20.7,12.4,29.78,North,7,0.0,0.0,70,0.00,,,0.00,VWS V14.00,2013-02-02 19:29:00,
2013-02-02 14:34:00,20.8,12.6,29.78,NNE,13,0.0,0.0,70,0.00,,,0.00,VWS V14.00,2013-02-02 19:34:00,
2013-02-02 14:39:00,20.8,12.6,29.78,North,11,0.0,0.0,70,0.00,,,0.00,VWS V14.00,2013-02-02 19:39:00,
2013-02-02 14:44:00,20.8,12.6,29.78,North,4,0.0,0.0,70,0.00,,,0.00,VWS V14.00,2013-02-02 19:44:00,
2013-02-02 14:49:00,21.0,12.5,29.78,NNE,16,0.0,0.0,69,0.00,,,0.00,VWS V14.00,2013-02-02 19:49:00,
2013-02-02 14:54:00,21.0,12.5,29.78,North,7,0.0,0.0,69,0.00,,,0.00,VWS V14.00,2013-02-02 19:54:00,
2013-02-02 15:00:00,21.0,12.1,29.78,NNW,331,0.0,0.0,68,0.00,,,0.00,VWS V14.00,2013-02-02 20:00:00,
2013-02-02 15:06:00,20.8,11.6,29.78,North,9,0.0,0.0,67,0.00,,,0.00,VWS V14.00,2013-02-02 20:06:00,
2013-02-02 15:11:00,20.7,11.1,29.78,NE,39,0.0,0.0,66,0.00,,,0.00,VWS V14.00,2013-02-02 20:11:00,
2013-02-02 15:17:00,20.7,11.1,29.78,NNE,21,0.0,0.0,66,0.00,,,0.00,VWS V14.00,2013-02-02 20:17:00,
2013-02-02 15:22:00,20.8,11.3,29.78,NNE,12,0.0,0.0,66,0.00,,,0.00,VWS V14.00,2013-02-02 20:22:00,
2013-02-02 15:27:00,20.8,11.3,29.78,NNE,17,0.0,0.0,66,0.00,,,0.00,VWS V14.00,2013-02-02 20:27:00,
2013-02-02 15:32:00,20.8,11.3,29.78,North,9,0.0,0.0,66,0.00,,,0.00,VWS V14.00,2013-02-02 20:32:00,
2013-02-02 15:38:00,20.3,10.1,29.78,North,357,0.0,0.0,64,0.00,,,0.00,VWS V14.00,2013-02-02 20:38:00,
2013-02-02 15:43:00,20.3,10.1,29.81,NNE,18,0.0,0.0,64,0.00,,,0.00,VWS V14.00,2013-02-02 20:43:00,
2013-02-02 15:57:00,22.1,11.4,29.81,NNE,23,0.0,0.0,63,0.00,,,0.00,VWS V14.00,2013-02-02 20:57:00,
2013-02-02 16:06:00,22.8,12.1,29.81,NNE,18,0.0,0.0,63,0.00,,,0.00,VWS V14.00,2013-02-02 21:06:00,
2013-02-02 16:11:00,23.4,12.6,29.81,North,0,0.0,0.0,63,0.00,,,0.00,VWS V14.00,2013-02-02 21:11:00,
2013-02-02 16:17:00,23.5,12.4,29.81,North,3,0.0,0.0,62,0.00,,,0.00,VWS V14.00,2013-02-02 21:17:00,
2013-02-02 16:23:00,24.3,13.5,29.81,North,8,0.0,0.0,63,0.00,,,0.00,VWS V14.00,2013-02-02 21:23:00,
2013-02-02 16:28:00,24.4,13.3,29.81,NNE,15,0.0,0.0,62,0.00,,,0.00,VWS V14.00,2013-02-02 21:28:00,
2013-02-02 16:33:00,24.4,12.9,29.81,North,9,0.0,0.0,61,0.00,,,0.00,VWS V14.00,2013-02-02 21:33:00,
2013-02-02 16:38:00,24.4,12.9,29.81,NNE,24,0.0,0.0,61,0.00,,,0.00,VWS V14.00,2013-02-02 21:38:00,
2013-02-02 16:43:00,24.8,13.3,29.81,North,4,0.0,0.0,61,0.00,,,0.00,VWS V14.00,2013-02-02 21:43:00,
2013-02-02 16:48:00,24.6,12.7,29.81,NNE,15,0.0,0.0,60,0.00,,,0.00,VWS V14.00,2013-02-02 21:48:00,
2013-02-02 16:54:00,23.9,11.7,29.81,NNE,24,0.0,0.0,59,0.00,,,0.00,VWS V14.00,2013-02-02 21:54:00,
2013-02-02 16:59:00,23.0,10.4,29.81,NNE,26,0.0,0.0,58,0.00,,,0.00,VWS V14.00,2013-02-02 21:59:00,
2013-02-02 17:05:00,22.5,9.9,29.81,North,5,0.0,0.0,58,0.00,,,0.00,VWS V14.00,2013-02-02 22:05:00,
2013-02-02 17:10:00,22.3,10.1,29.81,NE,43,0.0,0.0,59,0.00,,,0.00,VWS V14.00,2013-02-02 22:10:00,
2013-02-02 17:16:00,22.1,10.0,29.81,North,8,0.0,0.0,59,0.00,,,0.00,VWS V14.00,2013-02-02 22:16:00,
2013-02-02 17:21:00,21.7,9.6,29.81,NNE,30,0.0,0.0,59,0.00,,,0.00,VWS V14.00,2013-02-02 22:21:00,
2013-02-02 17:26:00,21.4,9.3,29.81,NE,44,0.0,0.0,59,0.00,,,0.00,VWS V14.00,2013-02-02 22:26:00,
2013-02-02 17:31:00,21.2,9.1,29.81,NE,48,0.0,0.0,59,0.00,,,0.00,VWS V14.00,2013-02-02 22:31:00,
2013-02-02 17:36:00,20.5,8.4,29.81,NNE,25,0.0,0.0,59,0.00,,,0.00,VWS V14.00,2013-02-02 22:36:00,
2013-02-02 17:41:00,20.3,8.3,29.81,North,7,0.0,0.0,59,0.00,,,0.00,VWS V14.00,2013-02-02 22:41:00,
2013-02-02 17:46:00,19.6,7.6,29.81,NNE,28,0.0,0.0,59,0.00,,,0.00,VWS V14.00,2013-02-02 22:46:00,
2013-02-02 17:51:00,19.4,7.4,29.81,NNE,27,0.0,0.0,59,0.00,,,0.00,VWS V14.00,2013-02-02 22:51:00,
2013-02-02 17:57:00,19.2,7.6,29.81,NNE,22,0.0,0.0,60,0.00,,,0.00,VWS V14.00,2013-02-02 22:57:00,
2013-02-02 18:02:00,19.0,7.4,29.81,NNE,22,0.0,0.0,60,0.00,,,0.00,VWS V14.00,2013-02-02 23:02:00,
2013-02-02 18:08:00,18.7,7.1,29.81,NNE,15,0.0,0.0,60,0.00,,,0.00,VWS V14.00,2013-02-02 23:08:00,
2013-02-02 18:13:00,18.3,6.8,29.81,North,10,0.0,0.0,60,0.00,,,0.00,VWS V14.00,2013-02-02 23:13:00,
2013-02-02 18:19:00,18.0,6.8,29.81,NE,34,0.0,0.0,61,0.00,,,0.00,VWS V14.00,2013-02-02 23:19:00,
2013-02-02 18:24:00,18.0,6.8,29.84,NE,34,0.0,0.0,61,0.00,,,0.00,VWS V14.00,2013-02-02 23:24:00,
2013-02-02 18:29:00,18.0,6.8,29.84,NE,34,0.0,0.0,61,0.00,,,0.00,VWS V14.00,2013-02-02 23:29:00,
2013-02-02 18:34:00,18.0,6.8,29.84,NE,34,0.0,0.0,61,0.00,,,0.00,VWS V14.00,2013-02-02 23:34:00,
2013-02-02 18:40:00,17.6,6.8,29.84,NE,34,0.0,0.0,62,0.00,,,0.00,VWS V14.00,2013-02-02 23:40:00,
2013-02-02 18:46:00,17.6,7.2,29.84,NE,34,0.0,0.0,63,0.00,,,0.00,VWS V14.00,2013-02-02 23:46:00,
2013-02-02 18:51:00,17.4,7.0,29.84,NE,34,0.0,0.0,63,0.00,,,0.00,VWS V14.00,2013-02-02 23:51:00,
2013-02-02 18:57:00,17.1,6.7,29.84,NE,34,0.0,0.0,63,0.00,,,0.00,VWS V14.00,2013-02-02 23:57:00,
2013-02-02 19:02:00,16.9,6.5,29.84,NE,34,0.0,0.0,63,0.00,,,0.00,VWS V14.00,2013-02-03 00:02:00,
2013-02-02 19:08:00,16.5,6.1,29.84,NE,34,0.0,0.0,63,0.00,,,0.00,VWS V14.00,2013-02-03 00:08:00,
2013-02-02 19:14:00,16.2,6.1,29.84,NE,34,0.0,0.0,64,0.00,,,0.00,VWS V14.00,2013-02-03 00:14:00,
2013-02-02 19:19:00,16.0,6.0,29.84,NE,34,0.0,0.0,64,0.00,,,0.00,VWS V14.00,2013-02-03 00:19:00,
2013-02-02 19:24:00,15.8,5.8,29.84,NE,34,0.0,0.0,64,0.00,,,0.00,VWS V14.00,2013-02-03 00:24:00,
2013-02-02 19:30:00,15.4,5.8,29.84,NE,34,0.0,0.0,65,0.00,,,0.00,VWS V14.00,2013-02-03 00:30:00,
2013-02-02 19:35:00,15.1,5.4,29.84,NE,34,0.0,0.0,65,0.00,,,0.00,VWS V14.00,2013-02-03 00:35:00,
2013-02-02 19:40:00,14.7,5.1,29.84,NE,34,0.0,0.0,65,0.00,,,0.00,VWS V14.00,2013-02-03 00:40:00,
2013-02-02 19:45:00,14.4,4.8,29.84,NE,34,0.0,0.0,65,0.00,,,0.00,VWS V14.00,2013-02-03 00:45:00,
2013-02-02 19:51:00,14.0,4.4,29.84,NE,34,0.0,0.0,65,0.00,,,0.00,VWS V14.00,2013-02-03 00:51:00,
2013-02-02 19:57:00,13.8,4.2,29.84,NE,34,0.0,0.0,65,0.00,,,0.00,VWS V14.00,2013-02-03 00:57:00,
2013-02-02 20:02:00,13.5,3.9,29.84,NE,34,0.0,0.0,65,0.00,,,0.00,VWS V14.00,2013-02-03 01:02:00,
2013-02-02 20:08:00,13.3,3.7,29.84,NE,34,0.0,0.0,65,0.00,,,0.00,VWS V14.00,2013-02-03 01:08:00,
2013-02-02 20:13:00,12.9,3.4,29.84,NE,34,0.0,0.0,65,0.00,,,0.00,VWS V14.00,2013-02-03 01:13:00,
2013-02-02 20:18:00,12.7,3.2,29.84,NE,34,0.0,0.0,65,0.00,,,0.00,VWS V14.00,2013-02-03 01:18:00,
2013-02-02 20:23:00,12.4,2.9,29.84,NE,34,0.0,0.0,65,0.00,,,0.00,VWS V14.00,2013-02-03 01:23:00,
2013-02-02 20:29:00,12.2,2.7,29.84,NE,34,0.0,0.0,65,0.00,,,0.00,VWS V14.00,2013-02-03 01:29:00,
2013-02-02 20:34:00,11.8,2.4,29.84,NE,34,0.0,0.0,65,0.00,,,0.00,VWS V14.00,2013-02-03 01:34:00,
2013-02-02 20:40:00,11.5,2.0,29.84,NE,34,0.0,0.0,65,0.00,,,0.00,VWS V14.00,2013-02-03 01:40:00,
2013-02-02 20:46:00,11.1,1.7,29.84,NE,34,0.0,0.0,65,0.00,,,0.00,VWS V14.00,2013-02-03 01:46:00,
2013-02-02 20:51:00,11.1,1.7,29.84,NE,34,0.0,0.0,65,0.00,,,0.00,VWS V14.00,2013-02-03 01:51:00,
2013-02-02 20:56:00,10.8,1.3,29.84,NE,34,0.0,0.0,65,0.00,,,0.00,VWS V14.00,2013-02-03 01:56:00,
2013-02-02 21:02:00,10.6,1.1,29.84,NE,34,0.0,0.0,65,0.00,,,0.00,VWS V14.00,2013-02-03 02:02:00,
2013-02-02 21:08:00,10.2,0.8,29.84,NE,34,0.0,0.0,65,0.00,,,0.00,VWS V14.00,2013-02-03 02:08:00,
2013-02-02 21:13:00,10.0,0.6,29.84,NE,34,0.0,0.0,65,0.00,,,0.00,VWS V14.00,2013-02-03 02:13:00,
2013-02-02 21:18:00,9.9,0.5,29.84,NE,34,0.0,0.0,65,0.00,,,0.00,VWS V14.00,2013-02-03 02:18:00,
2013-02-02 21:23:00,9.7,0.3,29.84,NE,34,0.0,0.0,65,0.00,,,0.00,VWS V14.00,2013-02-03 02:23:00,
2013-02-02 21:28:00,9.7,0.3,29.84,NE,34,0.0,0.0,65,0.00,,,0.00,VWS V14.00,2013-02-03 02:28:00,
2013-02-02 21:33:00,9.3,-0.1,29.84,NE,34,0.0,0.0,65,0.00,,,0.00,VWS V14.00,2013-02-03 02:33:00,
2013-02-02 21:39:00,9.1,-0.2,29.84,NE,34,0.0,0.0,65,0.00,,,0.00,VWS V14.00,2013-02-03 02:39:00,
2013-02-02 21:44:00,9.0,-0.4,29.84,NE,34,0.0,0.0,65,0.00,,,0.00,VWS V14.00,2013-02-03 02:44:00,
2013-02-02 21:50:00,9.0,-0.4,29.84,NE,34,0.0,0.0,65,0.00,,,0.00,VWS V14.00,2013-02-03 02:50:00,
2013-02-02 21:55:00,9.0,-0.4,29.84,NE,34,0.0,0.0,65,0.00,,,0.00,VWS V14.00,2013-02-03 02:55:00,
2013-02-02 22:01:00,8.8,-0.6,29.84,NE,34,0.0,0.0,65,0.00,,,0.00,VWS V14.00,2013-02-03 03:01:00,
2013-02-02 22:07:00,8.8,-0.6,29.84,NE,34,0.0,0.0,65,0.00,,,0.00,VWS V14.00,2013-02-03 03:07:00,
2013-02-02 22:12:00,8.8,-0.6,29.84,NE,34,0.0,0.0,65,0.00,,,0.00,VWS V14.00,2013-02-03 03:12:00,
2013-02-02 22:17:00,8.8,-0.6,29.84,NE,34,0.0,0.0,65,0.00,,,0.00,VWS V14.00,2013-02-03 03:17:00,
2013-02-02 22:22:00,8.8,-0.6,29.84,NE,34,0.0,0.0,65,0.00,,,0.00,VWS V14.00,2013-02-03 03:22:00,
2013-02-02 22:27:00,9.0,-0.4,29.84,NE,34,0.0,0.0,65,0.00,,,0.00,VWS V14.00,2013-02-03 03:27:00,
2013-02-02 22:33:00,9.0,-0.4,29.84,NE,34,0.0,0.0,65,0.00,,,0.00,VWS V14.00,2013-02-03 03:33:00,
2013-02-02 22:39:00,8.8,-0.6,29.84,NE,34,0.0,0.0,65,0.00,,,0.00,VWS V14.00,2013-02-03 03:39:00,
2013-02-02 22:44:00,9.0,-0.4,29.84,NE,34,0.0,0.0,65,0.00,,,0.00,VWS V14.00,2013-02-03 03:44:00,
2013-02-02 22:50:00,8.8,-0.6,29.81,NE,34,0.0,0.0,65,0.00,,,0.00,VWS V14.00,2013-02-03 03:50:00,
2013-02-02 22:55:00,8.8,-0.6,29.81,NE,34,0.0,0.0,65,0.00,,,0.00,VWS V14.00,2013-02-03 03:55:00,
2013-02-02 23:00:00,8.8,-0.6,29.81,NE,34,0.0,0.0,65,0.00,,,0.00,VWS V14.00,2013-02-03 04:00:00,
2013-02-02 23:05:00,8.6,-0.7,29.81,NE,34,0.0,0.0,65,0.00,,,0.00,VWS V14.00,2013-02-03 04:05:00,
2013-02-02 23:11:00,8.6,-0.7,29.81,NE,34,0.0,0.0,65,0.00,,,0.00,VWS V14.00,2013-02-03 04:11:00,
2013-02-02 23:16:00,8.6,-0.7,29.81,NE,34,0.0,0.0,65,0.00,,,0.00,VWS V14.00,2013-02-03 04:16:00,
2013-02-02 23:21:00,8.4,-0.9,29.81,NE,34,0.0,0.0,65,0.00,,,0.00,VWS V14.00,2013-02-03 04:21:00,
2013-02-02 23:27:00,8.4,-0.9,29.81,NE,34,0.0,0.0,65,0.00,,,0.00,VWS V14.00,2013-02-03 04:27:00,
2013-02-02 23:32:00,8.4,-0.9,29.81,NE,34,0.0,0.0,65,0.00,,,0.00,VWS V14.00,2013-02-03 04:32:00,
2013-02-02 23:37:00,8.4,-0.9,29.81,NE,34,0.0,0.0,65,0.00,,,0.00,VWS V14.00,2013-02-03 04:37:00,
2013-02-02 23:42:00,8.4,-0.9,29.81,NE,34,0.0,0.0,65,0.00,,,0.00,VWS V14.00,2013-02-03 04:42:00,
2013-02-02 23:48:00,8.4,-0.9,29.81,NE,34,0.0,0.0,65,0.00,,,0.00,VWS V14.00,2013-02-03 04:48:00,
2013-02-02 23:53:00,8.4,-0.9,29.81,NE,34,0.0,0.0,65,0.00,,,0.00,VWS V14.00,2013-02-03 04:53:00,
2013-02-02 23:58:00,8.4,-0.9,29.81,NE,34,0.0,0.0,65,0.00,,,0.00,VWS V14.00,2013-02-03 04:58:00,